Time;durP1;ratioP1;P1;durP2;ratioP2;P2;SDS_P1;SDS_P2;PMS_P1;PMS_P2;Temp;Humidity;BMP_temperature;BMP_pressure;BME280_temperature;BME280_humidity;BME280_pressure;Samples;Min_cycle;Max_cycle;Signal;HPM_P1;HPM_P2
2022/09/25 00:01:11;;;;;;;16.52;9.05;;;;;;;9.27;100.00;95136.41;5036536;28;20043;-76
2022/09/25 00:03:43;;;;;;;12.45;8.27;;;;;;;9.26;100.00;95134.81;5043182;28;20091;-76
2022/09/25 00:06:13;;;;;;;17.85;8.70;;;;;;;9.19;100.00;95130.66;5038687;28;20041;-76
2022/09/25 00:08:39;;;;;;;14.45;8.75;;;;;;;9.25;100.00;95133.25;5035697;28;20046;-76
2022/09/25 00:11:16;;;;;;;18.17;9.40;;;;;;;9.25;100.00;95133.25;5037444;28;20060;-76
2022/09/25 00:13:43;;;;;;;15.30;8.50;;;;;;;9.04;100.00;95128.09;5040378;28;20072;-76
2022/09/25 00:16:12;;;;;;;14.23;8.43;;;;;;;9.02;100.00;95130.16;5044697;28;20055;-76
2022/09/25 00:21:28;;;;;;;13.98;8.77;;;;;;;8.94;100.00;95117.63;5043525;28;20491;-76
2022/09/25 00:23:53;;;;;;;15.63;8.20;;;;;;;8.96;100.00;95121.53;5039147;28;20613;-77
2022/09/25 00:26:19;;;;;;;15.43;8.38;;;;;;;8.97;100.00;95117.09;5045678;28;20124;-77
2022/09/25 00:28:44;;;;;;;16.77;8.55;;;;;;;8.93;100.00;95116.03;5046805;28;20413;-78
2022/09/25 00:31:10;;;;;;;15.43;8.63;;;;;;;8.74;100.00;95108.75;5047072;28;20415;-77
2022/09/25 00:33:36;;;;;;;15.48;8.73;;;;;;;8.76;100.00;95101.38;5035728;28;20207;-77
2022/09/25 00:36:06;;;;;;;16.45;8.82;;;;;;;8.77;100.00;95095.09;5042506;28;20094;-77
2022/09/25 00:38:34;;;;;;;14.50;7.68;;;;;;;8.84;100.00;95102.69;5046537;28;20052;-77
2022/09/25 00:41:00;;;;;;;14.80;8.52;;;;;;;8.84;100.00;95100.84;5048537;28;20047;-76
2022/09/25 00:43:36;;;;;;;14.95;8.82;;;;;;;8.77;100.00;95105.59;5043494;28;20103;-76
2022/09/25 00:46:09;;;;;;;20.25;8.68;;;;;;;8.72;100.00;95110.88;5040369;28;20045;-76
2022/09/25 00:48:35;;;;;;;16.85;8.75;;;;;;;8.71;100.00;95104.03;5043175;28;20068;-76
2022/09/25 00:51:01;;;;;;;23.05;10.02;;;;;;;8.66;100.00;95114.53;5046835;28;20642;-76
2022/09/25 00:53:30;;;;;;;17.48;8.77;;;;;;;8.57;100.00;95109.06;5041526;28;20047;-77
2022/09/25 00:55:57;;;;;;;16.70;8.52;;;;;;;8.52;100.00;95100.41;5049358;28;20072;-76
2022/09/25 00:58:26;;;;;;;20.25;10.15;;;;;;;8.45;100.00;95104.09;5048759;28;20422;-76
2022/09/25 01:00:52;;;;;;;22.30;10.52;;;;;;;8.39;100.00;95102.53;5047793;28;20112;-76
2022/09/25 01:03:19;;;;;;;23.35;10.50;;;;;;;8.29;100.00;95097.28;5048391;28;20037;-76
2022/09/25 01:05:46;;;;;;;19.73;10.02;;;;;;;8.30;100.00;95099.66;5048831;28;20077;-77
2022/09/25 01:08:17;;;;;;;20.63;10.73;;;;;;;8.42;100.00;95102.00;5047329;28;20040;-77
2022/09/25 01:10:43;;;;;;;26.30;10.80;;;;;;;8.41;100.00;95100.41;5050761;28;20130;-77
2022/09/25 01:13:10;;;;;;;18.95;10.00;;;;;;;8.40;100.00;95101.44;5044914;28;20150;-76
2022/09/25 01:15:45;;;;;;;34.55;9.50;;;;;;;8.33;100.00;95093.06;5048572;28;20046;-76
2022/09/25 01:18:45;;;;;;;18.77;8.70;;;;;;;8.36;100.00;95097.00;5048939;28;20118;-76
2022/09/25 01:21:53;;;;;;;19.77;8.35;;;;;;;8.34;100.00;95094.66;5036217;28;20392;-76
2022/09/25 01:24:26;;;;;;;20.85;9.70;;;;;;;8.15;100.00;95087.34;4966320;28;20046;-76
2022/09/25 01:27:27;;;;;;;18.35;10.52;;;;;;;8.10;100.00;95083.94;5040003;28;20064;-76
2022/09/25 01:30:13;;;;;;;30.23;11.07;;;;;;;8.00;100.00;95084.72;5036979;28;20053;-77
2022/09/25 01:33:00;;;;;;;16.17;9.13;;;;;;;7.98;100.00;95077.13;5042395;28;20060;-76
2022/09/25 01:35:36;;;;;;;20.85;9.60;;;;;;;8.00;100.00;95084.72;5049837;28;20044;-76
2022/09/25 01:38:21;;;;;;;13.82;8.13;;;;;;;8.03;100.00;95078.97;5039026;28;20050;-76
2022/09/25 01:41:01;;;;;;;15.20;7.68;;;;;;;8.00;100.00;95084.72;5043794;28;20037;-76
2022/09/25 01:43:33;;;;;;;14.25;7.28;;;;;;;7.96;100.00;95078.44;5040621;28;20075;-76
2022/09/25 01:46:10;;;;;;;12.85;7.57;;;;;;;7.73;100.00;95091.00;5044634;28;20087;-77
2022/09/25 01:48:39;;;;;;;12.82;7.80;;;;;;;7.74;100.00;95087.34;5040195;28;20171;-77
2022/09/25 01:51:23;;;;;;;14.38;8.27;;;;;;;7.73;100.00;95080.53;5045147;28;20426;-76
2022/09/25 01:53:55;;;;;;;12.73;7.88;;;;;;;7.77;100.00;95081.59;5047610;28;20398;-76
2022/09/25 01:56:32;;;;;;;16.50;7.72;;;;;;;7.83;100.00;95073.72;5042919;28;20507;-76
2022/09/25 01:59:24;;;;;;;11.73;6.95;;;;;;;7.73;100.00;95091.00;5043103;28;20403;-77
2022/09/25 02:01:52;;;;;;;11.73;6.90;;;;;;;7.67;100.00;95086.84;5038980;28;20045;-77
2022/09/25 02:04:45;;;;;;;11.75;7.75;;;;;;;7.54;100.00;95082.09;5050056;28;20036;-76
2022/09/25 02:07:17;;;;;;;15.45;9.05;;;;;;;7.62;100.00;95077.13;5036614;28;20041;-76
2022/09/25 02:09:49;;;;;;;16.70;8.52;;;;;;;7.60;100.00;95076.59;5036789;28;20045;-76
2022/09/25 02:12:33;;;;;;;14.25;8.07;;;;;;;7.51;100.00;95082.59;5042415;28;20415;-76
2022/09/25 02:15:04;;;;;;;13.82;8.20;;;;;;;7.44;100.00;95083.66;5036407;28;20041;-76
2022/09/25 02:20:32;;;;;;;13.70;7.33;;;;;;;7.51;100.00;95080.00;5043808;28;20273;-76
2022/09/25 02:23:10;;;;;;;13.15;6.70;;;;;;;7.44;100.00;95090.69;5040908;28;20041;-76
2022/09/25 02:25:41;;;;;;;11.68;6.80;;;;;;;7.41;100.00;95092.03;5031007;28;20102;-76
2022/09/25 02:28:07;;;;;;;13.15;7.20;;;;;;;7.34;100.00;95093.31;5043283;28;20037;-76
2022/09/25 02:30:33;;;;;;;14.93;7.47;;;;;;;7.19;100.00;95096.69;5037768;28;20506;-77
2022/09/25 02:32:58;;;;;;;14.55;7.93;;;;;;;7.16;100.00;95091.97;5044282;28;20501;-77
2022/09/25 02:35:24;;;;;;;14.25;8.45;;;;;;;7.20;100.00;95095.66;5046730;28;20101;-77
2022/09/25 02:37:51;;;;;;;18.77;7.40;;;;;;;7.25;100.00;95100.88;5043396;28;20042;-77
2022/09/25 02:40:17;;;;;;;11.40;7.40;;;;;;;7.29;100.00;95096.69;5037821;28;20518;-77
2022/09/25 02:43:06;;;;;;;13.10;7.80;;;;;;;7.32;100.00;95095.41;5048208;28;20037;-77
2022/09/25 02:45:35;;;;;;;11.90;7.10;;;;;;;7.32;100.00;95096.19;5038576;28;20037;-77
2022/09/25 02:48:34;;;;;;;13.65;7.20;;;;;;;7.30;100.00;95098.28;5036415;28;20397;-77
2022/09/25 02:51:12;;;;;;;10.95;6.30;;;;;;;7.24;100.00;95088.81;5020601;28;20431;-77
2022/09/25 02:53:53;;;;;;;10.50;6.65;;;;;;;7.13;100.00;95087.25;5043248;28;20044;-77
2022/09/25 02:56:37;;;;;;;13.35;7.40;;;;;;;7.19;100.00;95080.97;5043304;28;20507;-77
2022/09/25 02:59:14;;;;;;;10.48;6.57;;;;;;;7.33;100.00;95076.81;5045351;28;20067;-77
2022/09/25 03:01:42;;;;;;;10.98;6.45;;;;;;;7.17;100.00;95062.13;5042044;28;20033;-77
2022/09/25 03:04:08;;;;;;;9.88;6.65;;;;;;;7.21;100.00;95063.16;5036810;28;20052;-77
2022/09/25 03:06:36;;;;;;;12.35;6.72;;;;;;;7.15;100.00;95064.22;5037332;28;20056;-77
2022/09/25 03:09:03;;;;;;;13.10;7.22;;;;;;;7.16;100.00;95065.78;5038137;28;20041;-77
2022/09/25 03:11:28;;;;;;;13.88;6.78;;;;;;;7.23;100.00;95055.88;5038694;28;20049;-77
2022/09/25 03:13:59;;;;;;;10.10;6.38;;;;;;;7.30;100.00;95066.88;5043151;28;20045;-76
2022/09/25 03:16:38;;;;;;;11.07;6.20;;;;;;;7.28;100.00;95055.84;5043388;28;20072;-77
2022/09/25 03:19:03;;;;;;;11.02;6.45;;;;;;;7.40;100.00;95064.28;5036369;28;20045;-77
2022/09/25 03:21:29;;;;;;;12.85;7.25;;;;;;;7.37;100.00;95061.38;5044752;28;20042;-77
2022/09/25 03:23:57;;;;;;;10.60;6.43;;;;;;;7.34;100.00;95059.28;5046469;28;20051;-77
2022/09/25 03:26:23;;;;;;;10.98;6.15;;;;;;;7.19;100.00;95060.03;5049724;28;20044;-78
2022/09/25 03:28:50;;;;;;;10.02;6.40;;;;;;;7.18;100.00;95055.84;5044690;28;20041;-77
2022/09/25 03:31:15;;;;;;;10.23;6.28;;;;;;;7.26;100.00;95050.09;5042528;28;20514;-77
2022/09/25 03:33:42;;;;;;;8.77;5.78;;;;;;;7.15;100.00;95043.28;5042829;28;20045;-77
2022/09/25 03:36:09;;;;;;;10.02;5.57;;;;;;;7.11;100.00;95043.81;5047639;28;20033;-77
2022/09/25 03:38:35;;;;;;;10.98;6.55;;;;;;;7.22;100.00;95049.06;5044026;28;20103;-77
2022/09/25 03:41:02;;;;;;;9.48;6.05;;;;;;;7.26;100.00;95050.88;5037596;28;20041;-77
2022/09/25 03:43:35;;;;;;;10.20;6.43;;;;;;;7.30;100.00;95051.16;5044749;28;20041;-77
2022/09/25 03:46:02;;;;;;;11.52;6.63;;;;;;;7.27;100.00;95051.69;5042699;28;20044;-77
2022/09/25 03:48:29;;;;;;;9.88;6.03;;;;;;;7.20;100.00;95061.63;5037511;28;20059;-76
2022/09/25 03:50:55;;;;;;;8.75;5.40;;;;;;;7.19;100.00;95062.66;5041244;28;20502;-76
2022/09/25 03:53:21;;;;;;;9.13;6.07;;;;;;;7.06;100.00;95046.41;5040882;28;20049;-77
2022/09/25 03:55:47;;;;;;;10.27;5.95;;;;;;;7.11;100.00;95054.25;5040048;28;20045;-76
2022/09/25 03:58:14;;;;;;;10.27;6.22;;;;;;;7.11;100.00;95059.50;5059609;28;20101;-78
2022/09/25 04:00:40;;;;;;;10.35;6.40;;;;;;;7.07;100.00;95057.66;5045409;28;20045;-77
2022/09/25 04:03:05;;;;;;;10.55;6.38;;;;;;;7.06;100.00;95043.00;5037596;28;20045;-76
2022/09/25 04:05:31;;;;;;;8.95;5.95;;;;;;;7.03;100.00;95052.16;5043297;28;20059;-76
2022/09/25 04:07:56;;;;;;;9.27;6.20;;;;;;;7.04;100.00;95043.25;5040295;28;20124;-76
2022/09/25 04:10:22;;;;;;;11.05;6.15;;;;;;;6.98;100.00;95039.03;5042220;28;20048;-76
2022/09/25 04:12:53;;;;;;;11.50;6.55;;;;;;;6.94;100.00;95024.94;5038201;28;20045;-76
2022/09/25 04:15:21;;;;;;;11.48;6.47;;;;;;;6.90;100.00;95021.25;5042447;28;20041;-76
2022/09/25 04:17:48;;;;;;;16.20;6.53;;;;;;;6.94;100.00;95027.53;5045886;28;20040;-76
2022/09/25 04:20:13;;;;;;;11.90;6.40;;;;;;;7.09;100.00;95034.63;5035340;28;20042;-76
2022/09/25 04:22:39;;;;;;;11.55;5.63;;;;;;;7.11;100.00;95033.34;5041577;28;20091;-76
2022/09/25 04:25:05;;;;;;;10.38;6.32;;;;;;;7.10;100.00;95026.53;5035786;28;20042;-76
2022/09/25 04:27:31;;;;;;;13.23;6.93;;;;;;;7.05;100.00;95034.38;5043281;28;20041;-76
2022/09/25 04:29:56;;;;;;;14.40;6.68;;;;;;;7.01;100.00;95038.53;5040461;28;20491;-76
2022/09/25 04:35:06;;;;;;;9.50;5.90;;;;;;;7.13;100.00;95045.38;5043318;28;20122;-77
2022/09/25 04:37:32;;;;;;;11.60;6.00;;;;;;;7.17;100.00;95046.41;5044470;28;20044;-77
2022/09/25 04:39:58;;;;;;;10.57;5.97;;;;;;;7.23;100.00;95040.16;5041014;28;20038;-77
2022/09/25 04:42:24;;;;;;;9.43;6.13;;;;;;;7.23;100.00;95040.16;5042436;28;20092;-77
2022/09/25 04:44:55;;;;;;;10.88;6.22;;;;;;;7.17;100.00;95039.38;5036322;28;20419;-77
2022/09/25 04:47:21;;;;;;;11.65;6.03;;;;;;;7.25;100.00;95043.28;5040097;28;20080;-78
2022/09/25 04:49:47;;;;;;;14.70;5.95;;;;;;;7.15;100.00;95038.03;5035195;28;20041;-78
2022/09/25 04:52:18;;;;;;;16.05;6.78;;;;;;;7.11;100.00;95043.81;5045558;28;20033;-78
2022/09/25 04:54:43;;;;;;;9.75;5.97;;;;;;;7.22;100.00;95039.34;5040202;28;20041;-78
2022/09/25 04:57:14;;;;;;;10.15;6.07;;;;;;;7.35;100.00;95043.31;5036125;28;20052;-77
2022/09/25 04:59:40;;;;;;;9.65;5.80;;;;;;;7.38;100.00;95040.16;5045502;28;20449;-76
2022/09/25 05:02:05;;;;;;;10.50;6.55;;;;;;;7.32;100.00;95046.44;5041156;28;20095;-77
2022/09/25 05:04:31;;;;;;;10.02;6.10;;;;;;;7.34;100.00;95047.00;5042642;28;20045;-77
2022/09/25 05:06:56;;;;;;;11.10;6.10;;;;;;;7.38;100.00;95047.25;5036869;28;20053;-77
2022/09/25 05:09:22;;;;;;;9.57;5.72;;;;;;;7.39;100.00;95048.81;5044184;28;20041;-77
2022/09/25 05:11:48;;;;;;;9.40;6.00;;;;;;;7.40;100.00;95051.19;5044278;28;20056;-77
2022/09/25 05:14:13;;;;;;;9.18;5.70;;;;;;;7.39;100.00;95054.84;5048649;28;20048;-77
2022/09/25 05:16:39;;;;;;;8.63;5.95;;;;;;;7.41;100.00;95055.38;5047167;28;20041;-77
2022/09/25 05:19:04;;;;;;;10.00;6.35;;;;;;;7.51;100.00;95056.41;5048485;28;20381;-77
2022/09/25 05:21:31;;;;;;;11.43;5.70;;;;;;;7.45;100.00;95047.78;5037554;28;20520;-78
2022/09/25 05:23:57;;;;;;;7.85;5.15;;;;;;;7.49;100.00;95058.53;5038091;28;20174;-77
2022/09/25 05:26:22;;;;;;;8.20;5.80;;;;;;;7.44;100.00;95047.00;5045133;28;20127;-77
2022/09/25 05:28:49;;;;;;;10.52;5.53;;;;;;;7.52;100.00;95052.78;5052121;28;20072;-77
2022/09/25 05:31:15;;;;;;;8.70;5.32;;;;;;;7.52;100.00;95047.53;5037444;28;20120;-77
2022/09/25 05:33:42;;;;;;;9.35;5.63;;;;;;;7.51;100.00;95046.72;5041970;28;20048;-78
2022/09/25 05:36:08;;;;;;;8.65;5.50;;;;;;;7.50;100.00;95046.97;5041884;28;20037;-77
2022/09/25 05:38:36;;;;;;;8.40;5.60;;;;;;;7.45;100.00;95045.94;5049547;28;20045;-77
2022/09/25 05:41:06;;;;;;;10.13;5.93;;;;;;;7.52;100.00;95048.31;5046205;28;20037;-77
2022/09/25 05:43:33;;;;;;;9.30;6.10;;;;;;;7.57;100.00;95050.13;5042871;28;20033;-77
2022/09/25 05:45:59;;;;;;;11.05;5.30;;;;;;;7.59;100.00;95053.28;5052737;28;20502;-77
2022/09/25 05:48:25;;;;;;;12.88;5.68;;;;;;;7.68;100.00;95056.94;5045907;28;20044;-77
2022/09/25 05:50:55;;;;;;;8.68;5.65;;;;;;;7.67;100.00;95044.13;5041035;28;20422;-77
2022/09/25 05:53:22;;;;;;;17.10;6.38;;;;;;;7.62;100.00;95042.28;5047028;28;20049;-77
2022/09/25 05:55:49;;;;;;;10.02;5.78;;;;;;;7.65;100.00;95052.25;5046393;28;20037;-78
2022/09/25 05:58:15;;;;;;;12.25;6.47;;;;;;;7.66;100.00;95038.09;5051587;28;20466;-78
2022/09/25 06:00:40;;;;;;;10.55;5.90;;;;;;;7.79;100.00;95036.78;5040720;28;20043;-78
2022/09/25 06:03:07;;;;;;;10.48;6.13;;;;;;;7.79;100.00;95042.81;5045321;28;21043;-77
2022/09/25 06:05:33;;;;;;;9.90;6.35;;;;;;;7.83;100.00;95044.91;5045077;28;20047;-77
2022/09/25 06:07:58;;;;;;;11.95;6.75;;;;;;;7.88;100.00;95055.38;5052180;28;20045;-77
2022/09/25 06:10:25;;;;;;;9.63;6.32;;;;;;;7.88;100.00;95050.16;5039262;28;20119;-77
2022/09/25 06:12:56;;;;;;;8.68;5.57;;;;;;;7.99;100.00;95051.72;5044749;28;20578;-77
2022/09/25 06:15:22;;;;;;;8.43;5.90;;;;;;;8.07;100.00;95048.53;5040275;28;20045;-77
2022/09/25 06:17:48;;;;;;;12.02;6.13;;;;;;;8.07;100.00;95053.78;5043416;28;20436;-77
2022/09/25 06:20:14;;;;;;;8.48;5.63;;;;;;;8.05;100.00;95055.91;5039876;28;20053;-77
2022/09/25 06:22:39;;;;;;;10.00;5.65;;;;;;;8.14;100.00;95049.06;5044353;28;20037;-77
2022/09/25 06:25:05;;;;;;;10.68;5.93;;;;;;;8.13;100.00;95052.75;5034002;28;20047;-77
2022/09/25 06:27:32;;;;;;;10.77;6.20;;;;;;;8.20;100.00;95051.69;5049474;28;20045;-77
2022/09/25 06:29:58;;;;;;;8.63;5.55;;;;;;;8.14;100.00;95048.28;5041959;28;20041;-77
2022/09/25 06:32:23;;;;;;;10.20;6.18;;;;;;;8.12;100.00;95045.94;5042502;28;20038;-77
2022/09/25 06:34:49;;;;;;;10.48;6.53;;;;;;;8.23;100.00;95056.38;5039936;28;20069;-77
2022/09/25 06:37:14;;;;;;;15.15;9.80;;;;;;;8.33;100.00;95048.50;5048183;28;20061;-77
2022/09/25 06:39:40;;;;;;;11.20;6.45;;;;;;;8.37;100.00;95057.41;5046403;28;20052;-77
2022/09/25 06:42:05;;;;;;;12.20;6.35;;;;;;;8.42;100.00;95049.53;5050859;28;20048;-77
2022/09/25 06:44:31;;;;;;;10.80;6.88;;;;;;;8.42;100.00;95044.31;5044278;28;20053;-77
2022/09/25 06:46:56;;;;;;;9.60;6.00;;;;;;;8.38;100.00;95043.25;5037046;28;20041;-77
2022/09/25 06:49:22;;;;;;;9.23;6.22;;;;;;;8.38;100.00;95042.47;5042578;28;20041;-77
2022/09/25 06:51:49;;;;;;;10.57;6.78;;;;;;;8.47;100.00;95044.28;5050145;28;20462;-78
2022/09/25 06:54:15;;;;;;;10.05;6.70;;;;;;;8.53;100.00;95042.44;5040736;28;20120;-76
2022/09/25 06:56:40;;;;;;;11.05;6.10;;;;;;;8.59;100.00;95043.22;5045482;28;20045;-76
2022/09/25 06:59:07;;;;;;;11.05;5.95;;;;;;;8.78;100.00;95041.59;5039851;28;20053;-76
2022/09/25 07:01:33;;;;;;;8.98;5.82;;;;;;;8.85;100.00;95036.06;5040292;28;20037;-76
2022/09/25 07:04:00;;;;;;;10.70;6.95;;;;;;;8.86;100.00;95036.81;5039368;28;20106;-77
2022/09/25 07:06:29;;;;;;;9.45;6.57;;;;;;;8.84;100.00;95045.75;5044320;28;20133;-77
2022/09/25 07:08:55;;;;;;;14.75;6.72;;;;;;;8.87;100.00;95038.41;5043232;28;20050;-77
2022/09/25 07:11:24;;;;;;;9.35;6.18;;;;;;;8.93;100.00;95048.59;5040726;28;20049;-76
2022/09/25 07:13:51;;;;;;;11.30;6.38;;;;;;;9.02;100.00;95046.19;5042103;28;20510;-76
2022/09/25 07:16:18;;;;;;;9.80;6.95;;;;;;;9.10;100.00;95048.25;5049234;28;20045;-76
2022/09/25 07:18:45;;;;;;;9.57;6.32;;;;;;;9.18;100.00;95050.31;5046107;28;20534;-76
2022/09/25 07:21:13;;;;;;;9.13;5.63;;;;;;;9.31;100.00;95038.41;5035737;28;20045;-76
2022/09/25 07:23:40;;;;;;;10.60;6.90;;;;;;;9.38;100.00;95038.13;5040334;28;20099;-76
2022/09/25 07:26:21;;;;;;;19.60;10.00;;;;;;;9.46;100.00;95045.41;5036870;28;20072;-76
2022/09/25 07:29:02;;;;;;;22.67;12.50;;;;;;;9.57;100.00;95040.88;5040237;28;20079;-76
2022/09/25 07:31:30;;;;;;;17.08;9.00;;;;;;;9.58;100.00;95031.16;5041723;28;20036;-76
2022/09/25 07:33:58;;;;;;;10.55;6.13;;;;;;;9.72;100.00;95037.34;5039975;28;20041;-76
2022/09/25 07:36:23;;;;;;;12.70;7.45;;;;;;;9.95;100.00;95035.06;5041612;28;20049;-76
2022/09/25 07:38:50;;;;;;;14.98;8.52;;;;;;;10.09;100.00;95040.47;5039370;28;20461;-76
2022/09/25 07:41:17;;;;;;;14.38;7.50;;;;;;;10.25;100.00;95033.22;5039862;28;20041;-76
2022/09/25 07:43:43;;;;;;;12.93;7.68;;;;;;;10.30;100.00;95035.78;5040058;28;20120;-76
2022/09/25 07:46:09;;;;;;;12.30;7.25;;;;;;;10.29;100.00;95034.22;5045231;28;20068;-76
2022/09/25 07:48:35;;;;;;;11.55;7.25;;;;;;;10.42;100.00;95049.38;5036078;28;20095;-76
2022/09/25 07:51:05;;;;;;;12.35;6.95;;;;;;;10.51;100.00;95042.41;5039603;28;20041;-76
2022/09/25 07:53:31;;;;;;;9.48;6.72;;;;;;;10.53;100.00;95056.09;5043428;28;20133;-76
2022/09/25 07:55:58;;;;;;;13.07;7.30;;;;;;;10.69;100.00;95048.03;5035869;28;20116;-76
2022/09/25 07:58:24;;;;;;;14.05;7.10;;;;;;;10.83;100.00;95054.19;5044195;28;20045;-75
2022/09/25 08:00:51;;;;;;;13.00;8.07;;;;;;;10.76;100.00;95051.13;5034791;28;20038;-77
2022/09/25 08:03:16;;;;;;;13.38;8.10;;;;;;;10.93;100.00;95058.53;5042866;28;20652;-76
2022/09/25 08:05:42;;;;;;;13.23;8.60;;;;;;;10.97;100.00;95058.75;5039597;28;20491;-76
2022/09/25 08:08:07;;;;;;;19.50;8.90;;;;;;;11.09;100.00;95051.22;5039920;28;20069;-76
2022/09/25 08:10:33;;;;;;;18.67;10.07;;;;;;;11.25;100.00;95054.44;5041683;28;20044;-76
2022/09/25 08:12:59;;;;;;;18.73;10.20;;;;;;;11.37;100.00;95044.25;5043043;28;20068;-76
2022/09/25 08:15:24;;;;;;;16.23;10.43;;;;;;;11.44;100.00;95041.28;5039620;28;20399;-76
2022/09/25 08:17:50;;;;;;;18.50;10.27;;;;;;;11.50;100.00;95048.03;5045924;28;20111;-76
2022/09/25 08:20:16;;;;;;;17.52;10.25;;;;;;;11.71;100.00;95045.06;5044946;28;20086;-76
2022/09/25 08:22:41;;;;;;;20.25;11.55;;;;;;;11.82;100.00;95046.47;5044305;28;20061;-79
2022/09/25 08:25:07;;;;;;;18.80;11.07;;;;;;;11.87;100.00;95043.78;5043597;28;20040;-78
2022/09/25 08:27:39;;;;;;;19.13;10.85;;;;;;;12.10;100.00;95036.06;5047636;28;20044;-78
2022/09/25 08:30:10;;;;;;;18.45;11.98;;;;;;;12.44;100.00;95040.19;5038868;28;20045;-79
2022/09/25 08:32:36;;;;;;;20.65;12.77;;;;;;;12.29;100.00;95034.13;5040791;28;20064;-77
2022/09/25 08:35:03;;;;;;;19.67;12.05;;;;;;;12.46;100.00;95043.34;5043744;28;20045;-77
2022/09/25 08:37:30;;;;;;;20.27;11.98;;;;;;;12.44;100.00;95037.56;5067506;28;20552;-76
2022/09/25 08:39:59;;;;;;;18.67;11.65;;;;;;;12.32;100.00;95042.53;5046034;28;20049;-79
2022/09/25 08:42:33;;;;;;;19.35;12.18;;;;;;;12.41;100.00;95046.06;5044105;28;20110;-78
2022/09/25 08:50:37;;;;;;;18.42;11.73;;;;;;;12.49;100.00;95058.59;5038967;28;20044;-78
2022/09/25 08:53:12;;;;;;;18.80;11.80;;;;;;;12.55;100.00;95057.41;5041201;28;20049;-78
2022/09/25 08:58:35;;;;;;;20.08;11.32;;;;;;;12.29;100.00;95055.22;5046140;28;20053;-77
2022/09/25 09:01:05;;;;;;;22.60;12.65;;;;;;;12.38;100.00;95049.28;5040716;28;20575;-77
2022/09/25 09:03:32;;;;;;;20.30;12.57;;;;;;;12.58;100.00;95048.91;5046997;28;20049;-78
2022/09/25 09:06:03;;;;;;;18.27;11.27;;;;;;;12.50;100.00;95044.31;5050569;28;20053;-77
2022/09/25 09:08:32;;;;;;;20.92;12.23;;;;;;;12.48;100.00;95046.44;5047652;28;20034;-78
2022/09/25 09:11:06;;;;;;;22.63;12.25;;;;;;;12.55;100.00;95052.13;5051507;28;20426;-77
2022/09/25 09:13:53;;;;;;;21.08;12.57;;;;;;;12.47;100.00;95042.28;5045852;28;20045;-77
2022/09/25 09:16:25;;;;;;;22.30;13.05;;;;;;;12.52;100.00;95044.81;5052104;28;20112;-78
2022/09/25 09:18:51;;;;;;;22.80;12.95;;;;;;;12.33;100.00;95049.41;5046128;28;20048;-76
2022/09/25 09:22:00;;;;;;;23.77;12.27;;;;;;;12.25;100.00;95051.59;5042104;28;20120;-77
2022/09/25 09:24:47;;;;;;;23.55;12.70;;;;;;;12.12;100.00;95039.19;5024155;28;20049;-77
2022/09/25 09:27:12;;;;;;;19.00;11.90;;;;;;;12.01;100.00;95056.25;5047585;28;20053;-79
2022/09/25 09:30:00;;;;;;;20.80;12.23;;;;;;;12.13;100.00;95041.53;5035432;28;20583;-79
2022/09/25 09:32:25;;;;;;;19.35;11.57;;;;;;;12.28;100.00;95037.84;5051396;28;20045;-77
2022/09/25 09:35:06;;;;;;;20.17;12.05;;;;;;;12.45;100.00;95041.75;5050763;28;20525;-77
2022/09/25 09:37:54;;;;;;;22.85;12.95;;;;;;;12.58;100.00;95040.97;5049565;28;20056;-77
2022/09/25 09:40:38;;;;;;;19.75;12.57;;;;;;;12.69;100.00;95035.53;5038302;28;20060;-77
2022/09/25 09:43:09;;;;;;;21.30;12.63;;;;;;;12.80;100.00;95026.31;5045299;28;20049;-75
2022/09/25 09:45:51;;;;;;;19.45;11.88;;;;;;;12.93;100.00;95030.81;5035546;28;20056;-77
2022/09/25 09:48:21;;;;;;;22.45;12.52;;;;;;;12.79;100.00;95024.75;5046893;28;20041;-76
2022/09/25 09:51:01;;;;;;;21.10;12.50;;;;;;;12.56;100.00;95024.66;5052098;28;20395;-76
2022/09/25 09:53:35;;;;;;;19.08;12.07;;;;;;;12.77;100.00;95021.63;5043184;28;20037;-77
2022/09/25 09:56:04;;;;;;;;;;;;;;;13.15;100.00;95029.31;5040854;28;20050;-77
2022/09/25 09:58:42;;;;;;;21.48;12.00;;;;;;;12.81;100.00;95030.53;5045781;28;20402;-78
2022/09/25 10:01:09;;;;;;;19.85;12.15;;;;;;;12.83;100.00;95020.47;5042667;28;20044;-77
2022/09/25 10:03:37;;;;;;;22.42;12.52;;;;;;;13.17;100.00;95016.56;5048171;28;20037;-79
2022/09/25 10:06:15;;;;;;;26.05;14.10;;;;;;;13.25;100.00;95017.75;5040983;28;20033;-78
2022/09/25 10:08:41;;;;;;;21.83;12.82;;;;;;;13.26;100.00;95017.44;5045107;28;20037;-77
2022/09/25 10:11:15;;;;;;;24.08;14.30;;;;;;;13.26;100.00;95022.72;5038976;28;20048;-77
2022/09/25 10:13:43;;;;;;;22.08;14.00;;;;;;;13.43;100.00;95022.13;5038593;28;20120;-77
2022/09/25 10:16:13;;;;;;;23.33;13.77;;;;;;;13.48;100.00;95013.28;5051490;28;20112;-77
2022/09/25 10:19:03;;;;;;;23.35;13.55;;;;;;;13.31;100.00;95019.94;5056241;28;20067;-79
2022/09/25 10:21:36;;;;;;;23.20;12.77;;;;;;;13.39;100.00;95025.63;5038807;28;20466;-78
2022/09/25 10:24:02;;;;;;;22.50;12.35;;;;;;;13.31;100.00;95019.94;5047844;28;20041;-78
2022/09/25 10:26:38;;;;;;;19.10;11.90;;;;;;;13.66;100.00;95020.28;5048278;28;20099;-78
2022/09/25 10:29:25;;;;;;;19.80;13.00;;;;;;;13.74;100.00;95020.63;5041365;28;20631;-77
2022/09/25 10:32:01;;;;;;;20.75;11.18;;;;;;;13.63;100.00;95020.06;5045034;28;20033;-78
2022/09/25 10:34:28;;;;;;;20.60;11.57;;;;;;;13.58;100.00;95013.06;5041964;28;20045;-77
2022/09/25 10:36:54;;;;;;;19.25;11.55;;;;;;;13.26;100.00;95022.72;5049719;28;20121;-76
2022/09/25 10:39:38;;;;;;;20.45;11.43;;;;;;;13.32;100.00;95021.53;5049835;28;20081;-76
2022/09/25 10:42:25;;;;;;;22.97;12.47;;;;;;;13.03;100.00;95018.47;5055672;28;20037;-77
2022/09/25 10:44:55;;;;;;;20.75;12.30;;;;;;;13.13;100.00;95018.25;5053683;28;20134;-77
2022/09/25 10:50:25;;;;;;;19.83;12.93;;;;;;;13.69;100.00;95019.66;5076201;28;20029;-78
2022/09/25 10:52:58;;;;;;;19.92;11.68;;;;;;;13.98;100.00;95023.72;5070841;28;20021;-80
2022/09/25 10:55:27;;;;;;;22.48;11.73;;;;;;;14.38;100.00;95013.19;5067547;28;20029;-78
2022/09/25 10:58:04;;;;;;;17.58;10.38;;;;;;;15.74;100.00;95007.16;5063694;28;20052;-78
2022/09/25 11:00:32;;;;;;;18.63;10.57;;;;;;;15.07;100.00;95017.16;5063829;28;20037;-77
2022/09/25 11:03:01;;;;;;;20.50;10.38;;;;;;;15.42;100.00;95017.16;5058083;28;20037;-76
2022/09/25 11:05:30;;;;;;;14.20;9.20;;;;;;;15.59;100.00;95010.31;5072145;28;20056;-77
2022/09/25 11:08:01;;;;;;;14.23;8.70;;;;;;;16.21;100.00;95005.72;5074420;28;20038;-77
2022/09/25 11:10:32;;;;;;;16.50;9.27;;;;;;;16.51;100.00;94995.13;5057146;28;20052;-77
2022/09/25 11:13:08;;;;;;;11.43;7.60;;;;;;;16.65;100.00;95001.00;5038296;28;20073;-77
2022/09/25 11:15:37;;;;;;;14.52;8.02;;;;;;;15.92;100.00;95001.88;5053790;28;20700;-78
2022/09/25 11:18:04;;;;;;;12.93;8.43;;;;;;;15.89;100.00;95005.16;5048277;28;20045;-79
2022/09/25 11:20:31;;;;;;;13.32;7.00;;;;;;;15.67;100.00;95006.84;5041072;28;20037;-78
2022/09/25 11:23:22;;;;;;;12.10;8.00;;;;;;;16.16;100.00;95000.56;5042322;28;20088;-76
2022/09/25 11:25:56;;;;;;;12.48;7.97;;;;;;;16.16;100.00;94990.75;5040404;28;20030;-75
2022/09/25 11:28:40;;;;;;;12.43;7.68;;;;;;;15.99;100.00;94994.22;5039679;28;20049;-77
2022/09/25 11:31:24;;;;;;;11.63;7.70;;;;;;;16.16;100.00;94984.63;5046917;28;20473;-76
2022/09/25 11:34:03;;;;;;;12.40;7.93;;;;;;;16.87;100.00;94983.22;5042377;28;20053;-77
2022/09/25 11:36:48;;;;;;;13.93;7.22;;;;;;;17.14;100.00;94974.78;5048250;28;20083;-78
2022/09/25 11:42:23;;;;;;;12.93;6.60;;;;;;;17.41;100.00;94972.72;5040116;28;20041;-77
2022/09/25 11:45:07;;;;;;;10.63;7.43;;;;;;;18.28;100.00;94970.31;5034039;28;20057;-77
2022/09/25 11:47:42;;;;;;;9.50;6.53;;;;;;;19.30;100.00;94974.91;5038162;28;20043;-76
2022/09/25 11:50:16;;;;;;;10.50;6.60;;;;;;;19.33;95.38;94976.88;5048193;28;20041;-76
2022/09/25 11:53:00;;;;;;;;;;;;;;;20.00;95.32;94971.09;5046198;28;20120;-77
2022/09/25 11:55:53;;;;;;;10.50;7.05;;;;;;;20.60;92.97;94962.97;5045536;28;19928;-76
2022/09/25 11:58:38;;;;;;;16.77;6.22;;;;;;;19.48;100.00;94965.50;5048723;28;20068;-77
2022/09/25 12:01:07;;;;;;;10.27;6.25;;;;;;;18.29;100.00;94955.88;5037415;28;20041;-77